sensor_id;sensor_type;location;lat;lon;timestamp;pressure;altitude;pressure_sealevel;temperature;humidity
10464;BME280;5279;42.048;24.638;2023-04-10T00:02:14;97608.28;;;8.14;92.03
10464;BME280;5279;42.048;24.638;2023-04-10T00:04:41;97607.13;;;8.28;86.40
10464;BME280;5279;42.048;24.638;2023-04-10T00:07:08;97610.22;;;8.33;86.65
10464;BME280;5279;42.048;24.638;2023-04-10T00:09:35;97604.94;;;8.33;84.28
10464;BME280;5279;42.048;24.638;2023-04-10T00:12:02;97605.66;;;8.35;80.95
10464;BME280;5279;42.048;24.638;2023-04-10T00:14:30;97597.22;;;8.41;78.92
10464;BME280;5279;42.048;24.638;2023-04-10T00:16:57;97592.78;;;8.42;79.94
10464;BME280;5279;42.048;24.638;2023-04-10T00:19:24;97591.09;;;8.41;79.33
10464;BME280;5279;42.048;24.638;2023-04-10T00:21:51;97599.38;;;8.36;78.35
10464;BME280;5279;42.048;24.638;2023-04-10T00:24:18;97595.09;;;8.35;77.92
10464;BME280;5279;42.048;24.638;2023-04-10T00:26:44;97598.00;;;8.32;77.54
10464;BME280;5279;42.048;24.638;2023-04-10T00:29:11;97573.91;;;8.05;80.24
10464;BME280;5279;42.048;24.638;2023-04-10T00:31:40;97579.56;;;7.48;86.12
10464;BME280;5279;42.048;24.638;2023-04-10T00:34:06;97578.50;;;7.50;83.45
10464;BME280;5279;42.048;24.638;2023-04-10T00:36:33;97575.16;;;7.48;81.86
10464;BME280;5279;42.048;24.638;2023-04-10T00:39:00;97583.31;;;7.45;82.93
10464;BME280;5279;42.048;24.638;2023-04-10T00:41:27;97574.25;;;7.38;82.30
10464;BME280;5279;42.048;24.638;2023-04-10T00:43:55;97571.47;;;7.40;82.84
10464;BME280;5279;42.048;24.638;2023-04-10T00:46:22;97571.81;;;7.46;83.46
10464;BME280;5279;42.048;24.638;2023-04-10T00:48:51;97562.28;;;7.34;84.66
10464;BME280;5279;42.048;24.638;2023-04-10T00:51:19;97577.00;;;7.37;84.63
10464;BME280;5279;42.048;24.638;2023-04-10T00:53:46;97568.97;;;7.38;84.85
10464;BME280;5279;42.048;24.638;2023-04-10T00:56:15;97566.69;;;7.34;85.86
10464;BME280;5279;42.048;24.638;2023-04-10T00:58:42;97566.09;;;7.30;84.95
10464;BME280;5279;42.048;24.638;2023-04-10T01:01:09;97562.31;;;7.23;85.11
10464;BME280;5279;42.048;24.638;2023-04-10T01:03:38;97550.97;;;7.11;84.64
10464;BME280;5279;42.048;24.638;2023-04-10T01:06:12;97557.81;;;7.03;84.48
10464;BME280;5279;42.048;24.638;2023-04-10T01:08:47;97557.88;;;6.81;85.05
10464;BME280;5279;42.048;24.638;2023-04-10T01:11:26;97558.94;;;6.78;86.36
10464;BME280;5279;42.048;24.638;2023-04-10T01:14:01;97554.66;;;6.77;87.49
10464;BME280;5279;42.048;24.638;2023-04-10T01:16:35;97558.38;;;6.75;86.64
10464;BME280;5279;42.048;24.638;2023-04-10T01:19:14;97551.78;;;6.80;88.88
10464;BME280;5279;42.048;24.638;2023-04-10T01:21:50;97562.31;;;6.80;91.24
10464;BME280;5279;42.048;24.638;2023-04-10T01:24:26;97552.38;;;6.73;91.85
10464;BME280;5279;42.048;24.638;2023-04-10T01:27:10;97550.97;;;6.69;93.95
10464;BME280;5279;42.048;24.638;2023-04-10T01:29:43;97553.13;;;6.52;90.46
10464;BME280;5279;42.048;24.638;2023-04-10T01:32:14;97553.72;;;6.56;90.59
10464;BME280;5279;42.048;24.638;2023-04-10T01:34:45;97553.97;;;6.53;88.20
10464;BME280;5279;42.048;24.638;2023-04-10T01:37:16;97555.97;;;6.38;87.65
10464;BME280;5279;42.048;24.638;2023-04-10T01:39:50;97551.81;;;6.14;91.08
10464;BME280;5279;42.048;24.638;2023-04-10T01:42:21;97559.09;;;6.21;89.43
10464;BME280;5279;42.048;24.638;2023-04-10T01:44:51;97559.94;;;6.22;89.71
10464;BME280;5279;42.048;24.638;2023-04-10T01:47:19;97560.88;;;6.21;89.23
10464;BME280;5279;42.048;24.638;2023-04-10T01:49:48;97556.69;;;6.07;89.73
10464;BME280;5279;42.048;24.638;2023-04-10T01:52:17;97560.03;;;6.09;89.73
10464;BME280;5279;42.048;24.638;2023-04-10T01:54:45;97556.56;;;6.09;90.67
10464;BME280;5279;42.048;24.638;2023-04-10T01:57:14;97560.53;;;6.25;90.09
10464;BME280;5279;42.048;24.638;2023-04-10T01:59:41;97559.31;;;6.18;92.13
10464;BME280;5279;42.048;24.638;2023-04-10T02:02:10;97557.41;;;5.98;89.77
10464;BME280;5279;42.048;24.638;2023-04-10T02:04:37;97554.53;;;6.01;88.86
10464;BME280;5279;42.048;24.638;2023-04-10T02:07:08;97553.31;;;6.05;88.25
10464;BME280;5279;42.048;24.638;2023-04-10T02:09:45;97562.19;;;6.04;88.60
10464;BME280;5279;42.048;24.638;2023-04-10T02:12:15;97555.00;;;6.06;88.46
10464;BME280;5279;42.048;24.638;2023-04-10T02:14:45;97554.41;;;6.02;89.00
10464;BME280;5279;42.048;24.638;2023-04-10T02:17:18;97551.66;;;6.15;89.72
10464;BME280;5279;42.048;24.638;2023-04-10T02:19:47;97556.47;;;6.21;89.90
10464;BME280;5279;42.048;24.638;2023-04-10T02:22:16;97558.00;;;6.24;90.79
10464;BME280;5279;42.048;24.638;2023-04-10T02:24:43;97558.38;;;6.30;89.46
10464;BME280;5279;42.048;24.638;2023-04-10T02:27:11;97557.78;;;6.16;90.60
10464;BME280;5279;42.048;24.638;2023-04-10T02:29:37;97536.59;;;6.17;91.71
10464;BME280;5279;42.048;24.638;2023-04-10T02:32:05;97539.97;;;6.30;92.55
10464;BME280;5279;42.048;24.638;2023-04-10T02:34:33;97539.72;;;6.33;91.53
10464;BME280;5279;42.048;24.638;2023-04-10T02:37:00;97540.19;;;6.38;91.54
10464;BME280;5279;42.048;24.638;2023-04-10T02:39:27;97542.94;;;6.37;88.38
10464;BME280;5279;42.048;24.638;2023-04-10T02:41:54;97537.94;;;6.34;86.39
10464;BME280;5279;42.048;24.638;2023-04-10T02:44:21;97531.59;;;6.36;87.35
10464;BME280;5279;42.048;24.638;2023-04-10T02:46:48;97536.38;;;6.42;88.39
10464;BME280;5279;42.048;24.638;2023-04-10T02:49:15;97530.63;;;6.48;89.49
10464;BME280;5279;42.048;24.638;2023-04-10T02:51:43;97531.47;;;6.49;87.18
10464;BME280;5279;42.048;24.638;2023-04-10T02:54:10;97538.53;;;6.59;86.00
10464;BME280;5279;42.048;24.638;2023-04-10T02:56:37;97531.69;;;6.57;86.22
10464;BME280;5279;42.048;24.638;2023-04-10T02:59:03;97530.94;;;6.66;86.24
10464;BME280;5279;42.048;24.638;2023-04-10T03:01:30;97533.00;;;6.63;84.38
10464;BME280;5279;42.048;24.638;2023-04-10T03:03:57;97533.25;;;6.59;85.79
10464;BME280;5279;42.048;24.638;2023-04-10T03:06:24;97526.31;;;6.58;86.26
10464;BME280;5279;42.048;24.638;2023-04-10T03:08:53;97531.56;;;6.58;87.56
10464;BME280;5279;42.048;24.638;2023-04-10T03:11:20;97529.88;;;6.57;90.43
10464;BME280;5279;42.048;24.638;2023-04-10T03:13:47;97523.78;;;6.68;89.68
10464;BME280;5279;42.048;24.638;2023-04-10T03:16:14;97519.31;;;6.80;89.45
10464;BME280;5279;42.048;24.638;2023-04-10T03:18:42;97533.41;;;7.01;87.71
10464;BME280;5279;42.048;24.638;2023-04-10T03:21:09;97524.84;;;7.08;89.29
10464;BME280;5279;42.048;24.638;2023-04-10T03:23:36;97531.91;;;7.19;86.77
10464;BME280;5279;42.048;24.638;2023-04-10T03:26:05;97530.69;;;7.23;86.27
10464;BME280;5279;42.048;24.638;2023-04-10T03:28:32;97539.75;;;7.30;86.09
10464;BME280;5279;42.048;24.638;2023-04-10T03:31:01;97530.91;;;7.31;87.27
10464;BME280;5279;42.048;24.638;2023-04-10T03:33:30;97534.22;;;7.33;81.47
10464;BME280;5279;42.048;24.638;2023-04-10T03:35:57;97533.97;;;7.36;82.05
10464;BME280;5279;42.048;24.638;2023-04-10T03:38:24;97538.75;;;7.42;83.83
10464;BME280;5279;42.048;24.638;2023-04-10T03:40:51;97539.91;;;7.49;84.29
10464;BME280;5279;42.048;24.638;2023-04-10T03:43:20;97538.72;;;7.53;79.82
10464;BME280;5279;42.048;24.638;2023-04-10T03:45:47;97540.09;;;7.57;81.99
10464;BME280;5279;42.048;24.638;2023-04-10T03:48:14;97540.44;;;7.64;80.14
10464;BME280;5279;42.048;24.638;2023-04-10T03:50:40;97539.50;;;7.65;78.52
10464;BME280;5279;42.048;24.638;2023-04-10T03:53:07;97542.97;;;7.65;79.03
10464;BME280;5279;42.048;24.638;2023-04-10T03:55:34;97539.50;;;7.65;80.87
10464;BME280;5279;42.048;24.638;2023-04-10T03:58:03;97541.91;;;7.57;81.05
10464;BME280;5279;42.048;24.638;2023-04-10T04:00:31;97541.34;;;7.53;82.12
10464;BME280;5279;42.048;24.638;2023-04-10T04:02:58;97541.34;;;7.53;82.09
10464;BME280;5279;42.048;24.638;2023-04-10T04:05:25;97552.16;;;7.50;78.50
10464;BME280;5279;42.048;24.638;2023-04-10T04:07:52;97557.50;;;7.28;79.77
10464;BME280;5279;42.048;24.638;2023-04-10T04:10:19;97554.16;;;7.26;79.79
10464;BME280;5279;42.048;24.638;2023-04-10T04:12:46;97548.06;;;7.26;79.32
10464;BME280;5279;42.048;24.638;2023-04-10T04:15:13;97554.91;;;7.17;83.29
10464;BME280;5279;42.048;24.638;2023-04-10T04:17:41;97553.78;;;6.99;85.85
10464;BME280;5279;42.048;24.638;2023-04-10T04:20:11;97560.47;;;6.92;83.67
10464;BME280;5279;42.048;24.638;2023-04-10T04:22:37;97557.16;;;6.90;83.38
10464;BME280;5279;42.048;24.638;2023-04-10T04:25:06;97557.88;;;6.81;83.98
10464;BME280;5279;42.048;24.638;2023-04-10T04:27:35;97558.97;;;6.67;85.41
10464;BME280;5279;42.048;24.638;2023-04-10T04:30:03;97562.81;;;6.52;88.86
10464;BME280;5279;42.048;24.638;2023-04-10T04:32:30;97561.22;;;6.60;85.99
10464;BME280;5279;42.048;24.638;2023-04-10T04:34:58;97557.91;;;6.58;88.31
10464;BME280;5279;42.048;24.638;2023-04-10T04:37:25;97557.28;;;6.77;90.47
10464;BME280;5279;42.048;24.638;2023-04-10T04:39:52;97558.06;;;7.00;90.75
10464;BME280;5279;42.048;24.638;2023-04-10T04:42:19;97551.78;;;7.12;89.87
10464;BME280;5279;42.048;24.638;2023-04-10T04:44:46;97550.03;;;7.33;82.83
10464;BME280;5279;42.048;24.638;2023-04-10T04:47:12;97547.38;;;7.44;79.72
10464;BME280;5279;42.048;24.638;2023-04-10T04:49:39;97552.72;;;7.54;78.14
10464;BME280;5279;42.048;24.638;2023-04-10T04:52:07;97549.72;;;7.58;78.38
10464;BME280;5279;42.048;24.638;2023-04-10T04:54:35;97556.78;;;7.79;78.12
10464;BME280;5279;42.048;24.638;2023-04-10T04:57:02;97553.56;;;7.96;77.75
10464;BME280;5279;42.048;24.638;2023-04-10T04:59:28;97549.75;;;8.09;77.74
10464;BME280;5279;42.048;24.638;2023-04-10T05:01:56;97559.66;;;8.38;75.10
10464;BME280;5279;42.048;24.638;2023-04-10T05:04:23;97556.09;;;8.48;71.33
10464;BME280;5279;42.048;24.638;2023-04-10T05:06:50;97551.00;;;8.56;71.32
10464;BME280;5279;42.048;24.638;2023-04-10T05:09:18;97565.06;;;8.66;71.01
10464;BME280;5279;42.048;24.638;2023-04-10T05:11:45;97554.53;;;8.76;70.49
10464;BME280;5279;42.048;24.638;2023-04-10T05:14:11;97558.03;;;8.86;69.60
10464;BME280;5279;42.048;24.638;2023-04-10T05:16:38;97561.41;;;8.98;68.15
10464;BME280;5279;42.048;24.638;2023-04-10T05:19:05;97556.56;;;9.12;68.27
10464;BME280;5279;42.048;24.638;2023-04-10T05:21:32;97557.69;;;9.19;68.09
10464;BME280;5279;42.048;24.638;2023-04-10T05:24:00;97561.59;;;9.34;67.28
10464;BME280;5279;42.048;24.638;2023-04-10T05:26:29;97578.44;;;9.43;65.22
10464;BME280;5279;42.048;24.638;2023-04-10T05:28:56;97567.47;;;9.48;67.16
10464;BME280;5279;42.048;24.638;2023-04-10T05:31:22;97570.41;;;9.54;67.79
10464;BME280;5279;42.048;24.638;2023-04-10T05:33:49;97564.38;;;9.52;67.25
10464;BME280;5279;42.048;24.638;2023-04-10T05:36:16;97574.69;;;9.55;64.41
10464;BME280;5279;42.048;24.638;2023-04-10T05:38:43;97567.72;;;9.73;64.26
10464;BME280;5279;42.048;24.638;2023-04-10T05:41:10;97569.13;;;9.87;64.65
10464;BME280;5279;42.048;24.638;2023-04-10T05:43:38;97567.72;;;10.02;64.06
10464;BME280;5279;42.048;24.638;2023-04-10T05:46:05;97570.78;;;10.17;62.80
10464;BME280;5279;42.048;24.638;2023-04-10T05:48:32;97575.59;;;10.31;62.14
10464;BME280;5279;42.048;24.638;2023-04-10T05:50:59;97567.09;;;10.37;61.79
10464;BME280;5279;42.048;24.638;2023-04-10T05:53:28;97575.84;;;10.47;60.64
10464;BME280;5279;42.048;24.638;2023-04-10T05:55:56;97571.78;;;10.53;60.56
10464;BME280;5279;42.048;24.638;2023-04-10T05:58:24;97577.34;;;10.59;60.36
10464;BME280;5279;42.048;24.638;2023-04-10T06:00:53;97571.84;;;10.70;59.93
10464;BME280;5279;42.048;24.638;2023-04-10T06:03:21;97571.38;;;10.84;60.60
10464;BME280;5279;42.048;24.638;2023-04-10T06:05:48;97568.97;;;10.91;61.69
10464;BME280;5279;42.048;24.638;2023-04-10T06:08:15;97570.16;;;11.06;61.25
10464;BME280;5279;42.048;24.638;2023-04-10T06:10:44;97574.56;;;11.15;59.70
10464;BME280;5279;42.048;24.638;2023-04-10T06:13:10;97566.63;;;11.33;58.20
10464;BME280;5279;42.048;24.638;2023-04-10T06:15:39;97571.03;;;11.42;56.38
10464;BME280;5279;42.048;24.638;2023-04-10T06:18:07;97568.16;;;11.53;58.41
10464;BME280;5279;42.048;24.638;2023-04-10T06:20:34;97569.53;;;11.57;56.98
10464;BME280;5279;42.048;24.638;2023-04-10T06:23:01;97559.69;;;11.67;56.40
10464;BME280;5279;42.048;24.638;2023-04-10T06:25:28;97565.66;;;11.69;56.03
10464;BME280;5279;42.048;24.638;2023-04-10T06:27:55;97570.75;;;11.80;57.85
10464;BME280;5279;42.048;24.638;2023-04-10T06:30:22;97562.88;;;11.88;58.38
10464;BME280;5279;42.048;24.638;2023-04-10T06:32:49;97555.41;;;12.10;57.52
10464;BME280;5279;42.048;24.638;2023-04-10T06:35:18;97564.97;;;12.28;55.04
10464;BME280;5279;42.048;24.638;2023-04-10T06:37:47;97555.59;;;12.42;53.28
10464;BME280;5279;42.048;24.638;2023-04-10T06:40:14;97561.81;;;12.58;52.00
10464;BME280;5279;42.048;24.638;2023-04-10T06:42:41;97570.38;;;12.70;52.12
10464;BME280;5279;42.048;24.638;2023-04-10T06:45:08;97567.75;;;12.78;51.03
10464;BME280;5279;42.048;24.638;2023-04-10T06:47:35;97568.75;;;12.77;52.01
10464;BME280;5279;42.048;24.638;2023-04-10T06:50:02;97569.47;;;12.87;52.75
10464;BME280;5279;42.048;24.638;2023-04-10T06:52:31;97576.28;;;12.90;52.91
10464;BME280;5279;42.048;24.638;2023-04-10T06:54:58;97577.91;;;13.08;49.36
10464;BME280;5279;42.048;24.638;2023-04-10T06:57:25;97566.09;;;13.11;50.33
10464;BME280;5279;42.048;24.638;2023-04-10T06:59:53;97574.16;;;13.01;47.28
10464;BME280;5279;42.048;24.638;2023-04-10T07:02:19;97567.97;;;13.19;47.67
10464;BME280;5279;42.048;24.638;2023-04-10T07:04:46;97572.97;;;13.30;47.33
10464;BME280;5279;42.048;24.638;2023-04-10T07:07:13;97579.66;;;13.42;46.89
10464;BME280;5279;42.048;24.638;2023-04-10T07:09:41;97571.66;;;13.42;47.68
10464;BME280;5279;42.048;24.638;2023-04-10T07:12:08;97570.16;;;13.31;46.58
10464;BME280;5279;42.048;24.638;2023-04-10T07:14:35;97572.50;;;13.42;47.23
10464;BME280;5279;42.048;24.638;2023-04-10T07:17:02;97579.00;;;13.40;47.15
10464;BME280;5279;42.048;24.638;2023-04-10T07:19:30;97577.97;;;13.33;47.01
10464;BME280;5279;42.048;24.638;2023-04-10T07:21:57;97577.00;;;13.34;46.52
10464;BME280;5279;42.048;24.638;2023-04-10T07:24:24;97574.31;;;13.34;48.02
10464;BME280;5279;42.048;24.638;2023-04-10T07:26:52;97580.31;;;13.36;47.41
10464;BME280;5279;42.048;24.638;2023-04-10T07:29:19;97574.50;;;13.40;46.83
10464;BME280;5279;42.048;24.638;2023-04-10T07:31:46;97580.97;;;13.30;47.66
10464;BME280;5279;42.048;24.638;2023-04-10T07:34:13;97575.50;;;13.31;47.78
10464;BME280;5279;42.048;24.638;2023-04-10T07:36:40;97586.59;;;13.27;47.00
10464;BME280;5279;42.048;24.638;2023-04-10T07:39:06;97575.25;;;13.17;47.26
10464;BME280;5279;42.048;24.638;2023-04-10T07:41:33;97573.16;;;13.36;47.64
10464;BME280;5279;42.048;24.638;2023-04-10T07:44:02;97586.94;;;13.32;47.66
10464;BME280;5279;42.048;24.638;2023-04-10T07:46:29;97565.31;;;13.35;48.84
10464;BME280;5279;42.048;24.638;2023-04-10T07:48:55;97565.72;;;13.72;48.41
10464;BME280;5279;42.048;24.638;2023-04-10T07:51:23;97562.94;;;13.98;47.17
10464;BME280;5279;42.048;24.638;2023-04-10T07:53:50;97575.09;;;14.33;46.52
10464;BME280;5279;42.048;24.638;2023-04-10T07:56:18;97580.72;;;14.54;44.53
10464;BME280;5279;42.048;24.638;2023-04-10T07:58:45;97578.03;;;14.54;43.59
10464;BME280;5279;42.048;24.638;2023-04-10T08:01:14;97574.66;;;14.76;43.44
10464;BME280;5279;42.048;24.638;2023-04-10T08:03:44;97572.31;;;14.81;42.86
10464;BME280;5279;42.048;24.638;2023-04-10T08:06:11;97568.84;;;15.19;42.43
10464;BME280;5279;42.048;24.638;2023-04-10T08:08:39;97562.56;;;15.66;42.75
10464;BME280;5279;42.048;24.638;2023-04-10T08:11:07;97557.66;;;15.77;41.83
10464;BME280;5279;42.048;24.638;2023-04-10T08:13:47;97566.13;;;15.81;42.42
10464;BME280;5279;42.048;24.638;2023-04-10T08:16:15;97564.88;;;16.14;41.00
10464;BME280;5279;42.048;24.638;2023-04-10T08:18:42;97563.19;;;16.51;40.98
10464;BME280;5279;42.048;24.638;2023-04-10T08:21:09;97557.03;;;16.50;39.72
10464;BME280;5279;42.048;24.638;2023-04-10T08:23:36;97564.19;;;16.35;39.44
10464;BME280;5279;42.048;24.638;2023-04-10T08:26:03;97560.47;;;16.21;38.52
10464;BME280;5279;42.048;24.638;2023-04-10T08:28:31;97561.91;;;16.32;38.46
10464;BME280;5279;42.048;24.638;2023-04-10T08:30:58;97550.22;;;16.10;38.15
10464;BME280;5279;42.048;24.638;2023-04-10T08:33:26;97554.38;;;15.90;39.04
10464;BME280;5279;42.048;24.638;2023-04-10T08:35:53;97550.38;;;15.71;38.48
10464;BME280;5279;42.048;24.638;2023-04-10T08:38:23;97546.78;;;15.79;37.90
10464;BME280;5279;42.048;24.638;2023-04-10T08:40:52;97538.56;;;16.03;39.03
10464;BME280;5279;42.048;24.638;2023-04-10T08:43:19;97548.81;;;16.14;39.17
10464;BME280;5279;42.048;24.638;2023-04-10T08:45:46;97544.25;;;16.23;39.30
10464;BME280;5279;42.048;24.638;2023-04-10T08:48:13;97541.53;;;16.08;38.88
10464;BME280;5279;42.048;24.638;2023-04-10T08:50:44;97536.69;;;15.89;38.48
10464;BME280;5279;42.048;24.638;2023-04-10T08:53:13;97531.94;;;15.76;39.07
10464;BME280;5279;42.048;24.638;2023-04-10T08:55:41;97527.63;;;16.13;38.67
10464;BME280;5279;42.048;24.638;2023-04-10T08:58:10;97525.78;;;16.13;38.26
10464;BME280;5279;42.048;24.638;2023-04-10T09:00:38;97521.44;;;16.12;39.25
10464;BME280;5279;42.048;24.638;2023-04-10T09:03:07;97521.63;;;15.73;39.44
10464;BME280;5279;42.048;24.638;2023-04-10T09:05:36;97525.28;;;15.72;39.36
10464;BME280;5279;42.048;24.638;2023-04-10T09:08:06;97521.75;;;15.80;39.33
10464;BME280;5279;42.048;24.638;2023-04-10T09:10:33;97510.88;;;15.59;40.03
10464;BME280;5279;42.048;24.638;2023-04-10T09:13:00;97516.34;;;15.35;41.20
10464;BME280;5279;42.048;24.638;2023-04-10T09:15:27;97517.56;;;14.93;41.18
10464;BME280;5279;42.048;24.638;2023-04-10T09:17:56;97521.00;;;14.71;40.61
10464;BME280;5279;42.048;24.638;2023-04-10T09:20:24;97524.06;;;14.52;42.18
10464;BME280;5279;42.048;24.638;2023-04-10T09:22:51;97513.94;;;14.39;42.63
10464;BME280;5279;42.048;24.638;2023-04-10T09:25:31;97517.44;;;14.32;43.08
10464;BME280;5279;42.048;24.638;2023-04-10T09:28:02;97504.13;;;13.99;42.75
10464;BME280;5279;42.048;24.638;2023-04-10T09:30:35;97508.81;;;13.49;43.54
10464;BME280;5279;42.048;24.638;2023-04-10T09:33:02;97504.16;;;13.43;43.87
10464;BME280;5279;42.048;24.638;2023-04-10T09:35:36;97504.16;;;13.43;45.31
10464;BME280;5279;42.048;24.638;2023-04-10T09:38:14;97509.94;;;13.30;45.98
10464;BME280;5279;42.048;24.638;2023-04-10T09:40:44;97507.41;;;13.12;46.36
10464;BME280;5279;42.048;24.638;2023-04-10T09:43:20;97514.06;;;13.08;45.59
10464;BME280;5279;42.048;24.638;2023-04-10T09:45:49;97502.53;;;13.00;45.77
10464;BME280;5279;42.048;24.638;2023-04-10T09:48:16;97495.03;;;12.95;45.24
10464;BME280;5279;42.048;24.638;2023-04-10T09:50:43;97508.50;;;12.94;45.23
10464;BME280;5279;42.048;24.638;2023-04-10T09:53:13;97502.91;;;12.71;46.45
10464;BME280;5279;42.048;24.638;2023-04-10T09:55:42;97507.25;;;12.72;46.91
10464;BME280;5279;42.048;24.638;2023-04-10T09:58:10;97506.59;;;12.70;47.52
10464;BME280;5279;42.048;24.638;2023-04-10T10:00:39;97498.31;;;12.81;47.39
10464;BME280;5279;42.048;24.638;2023-04-10T10:03:08;97505.66;;;12.95;46.76
10464;BME280;5279;42.048;24.638;2023-04-10T10:05:37;97503.94;;;12.78;46.84
10464;BME280;5279;42.048;24.638;2023-04-10T10:08:05;97502.91;;;12.71;47.24
10464;BME280;5279;42.048;24.638;2023-04-10T10:10:32;97509.50;;;12.59;47.12
10464;BME280;5279;42.048;24.638;2023-04-10T10:13:01;97504.81;;;12.53;47.47
10464;BME280;5279;42.048;24.638;2023-04-10T10:15:33;97507.22;;;12.64;48.00
10464;BME280;5279;42.048;24.638;2023-04-10T10:18:05;97500.56;;;12.68;47.66
10464;BME280;5279;42.048;24.638;2023-04-10T10:20:34;97498.88;;;12.59;47.86
10464;BME280;5279;42.048;24.638;2023-04-10T10:23:03;97507.34;;;12.54;48.38
10464;BME280;5279;42.048;24.638;2023-04-10T10:25:30;97502.50;;;12.50;47.56
10464;BME280;5279;42.048;24.638;2023-04-10T10:28:02;97510.47;;;12.50;48.46
10464;BME280;5279;42.048;24.638;2023-04-10T10:30:31;97506.41;;;12.38;47.89
10464;BME280;5279;42.048;24.638;2023-04-10T10:32:58;97499.13;;;12.40;48.20
10464;BME280;5279;42.048;24.638;2023-04-10T10:35:26;97500.25;;;12.37;48.24
10464;BME280;5279;42.048;24.638;2023-04-10T10:37:54;97501.34;;;12.52;48.38
10464;BME280;5279;42.048;24.638;2023-04-10T10:40:25;97500.66;;;12.50;49.15
10464;BME280;5279;42.048;24.638;2023-04-10T10:42:59;97493.50;;;12.43;51.56
10464;BME280;5279;42.048;24.638;2023-04-10T10:45:45;97492.78;;;12.33;50.44
10464;BME280;5279;42.048;24.638;2023-04-10T10:48:16;97489.03;;;12.18;51.04
10464;BME280;5279;42.048;24.638;2023-04-10T10:50:50;97494.56;;;12.24;51.11
10464;BME280;5279;42.048;24.638;2023-04-10T10:53:39;97486.25;;;11.93;51.54
10464;BME280;5279;42.048;24.638;2023-04-10T10:56:34;97485.00;;;12.05;51.47
10464;BME280;5279;42.048;24.638;2023-04-10T10:59:01;97481.38;;;12.15;52.24
10464;BME280;5279;42.048;24.638;2023-04-10T11:01:30;97472.47;;;12.24;51.99
10464;BME280;5279;42.048;24.638;2023-04-10T11:03:57;97475.38;;;12.38;51.63
10464;BME280;5279;42.048;24.638;2023-04-10T11:06:47;97473.69;;;12.37;51.68
10464;BME280;5279;42.048;24.638;2023-04-10T11:12:23;97473.66;;;12.71;49.44
10464;BME280;5279;42.048;24.638;2023-04-10T11:14:57;97470.41;;;12.93;49.41
10464;BME280;5279;42.048;24.638;2023-04-10T11:17:50;97463.50;;;13.08;48.25
10464;BME280;5279;42.048;24.638;2023-04-10T11:20:19;97448.91;;;13.12;48.13
10464;BME280;5279;42.048;24.638;2023-04-10T11:23:09;97453.88;;;13.32;49.08
10464;BME280;5279;42.048;24.638;2023-04-10T11:25:47;97461.72;;;13.49;48.61
10464;BME280;5279;42.048;24.638;2023-04-10T11:28:34;97459.88;;;13.74;47.74
10464;BME280;5279;42.048;24.638;2023-04-10T11:31:18;97455.38;;;13.91;48.26
10464;BME280;5279;42.048;24.638;2023-04-10T11:33:49;97457.19;;;14.06;47.09
10464;BME280;5279;42.048;24.638;2023-04-10T11:36:16;97454.47;;;14.22;45.98
10464;BME280;5279;42.048;24.638;2023-04-10T11:38:53;97450.09;;;14.46;45.50
10464;BME280;5279;42.048;24.638;2023-04-10T11:41:25;97448.16;;;14.70;44.71
10464;BME280;5279;42.048;24.638;2023-04-10T11:43:53;97457.66;;;14.73;44.29
10464;BME280;5279;42.048;24.638;2023-04-10T11:46:20;97442.28;;;14.83;43.75
10464;BME280;5279;42.048;24.638;2023-04-10T11:48:51;97441.56;;;14.89;43.47
10464;BME280;5279;42.048;24.638;2023-04-10T11:51:18;97445.00;;;14.67;45.06
10464;BME280;5279;42.048;24.638;2023-04-10T11:53:45;97430.97;;;14.73;44.75
10464;BME280;5279;42.048;24.638;2023-04-10T11:56:16;97438.09;;;14.81;44.40
10464;BME280;5279;42.048;24.638;2023-04-10T11:58:44;97439.31;;;14.70;44.29
10464;BME280;5279;42.048;24.638;2023-04-10T12:01:10;97439.03;;;14.65;43.76
10464;BME280;5279;42.048;24.638;2023-04-10T12:03:40;97431.38;;;14.54;43.88
10464;BME280;5279;42.048;24.638;2023-04-10T12:06:11;97437.75;;;14.45;44.50
10464;BME280;5279;42.048;24.638;2023-04-10T12:08:40;97440.13;;;14.23;45.62
10464;BME280;5279;42.048;24.638;2023-04-10T12:11:08;97442.88;;;13.99;46.32
10464;BME280;5279;42.048;24.638;2023-04-10T12:13:35;97435.41;;;13.79;47.25
10464;BME280;5279;42.048;24.638;2023-04-10T12:16:05;97434.25;;;13.57;49.17
10464;BME280;5279;42.048;24.638;2023-04-10T12:18:33;97440.28;;;13.43;52.54
10464;BME280;5279;42.048;24.638;2023-04-10T12:21:00;97434.44;;;13.39;54.10
10464;BME280;5279;42.048;24.638;2023-04-10T12:23:29;97437.25;;;13.38;56.06
10464;BME280;5279;42.048;24.638;2023-04-10T12:26:12;97424.28;;;13.27;59.41
10464;BME280;5279;42.048;24.638;2023-04-10T12:28:41;97430.59;;;13.18;61.63
10464;BME280;5279;42.048;24.638;2023-04-10T12:31:08;97421.25;;;13.05;67.42
10464;BME280;5279;42.048;24.638;2023-04-10T12:33:35;97413.44;;;13.04;66.32
10464;BME280;5279;42.048;24.638;2023-04-10T12:36:02;97416.97;;;13.12;70.42
10464;BME280;5279;42.048;24.638;2023-04-10T12:38:38;97416.47;;;13.25;63.16
10464;BME280;5279;42.048;24.638;2023-04-10T12:41:05;97419.63;;;13.37;58.94
10464;BME280;5279;42.048;24.638;2023-04-10T12:43:34;97416.47;;;13.49;56.85
10464;BME280;5279;42.048;24.638;2023-04-10T12:46:02;97411.97;;;13.58;61.07
10464;BME280;5279;42.048;24.638;2023-04-10T12:48:30;97403.28;;;13.72;60.04
10464;BME280;5279;42.048;24.638;2023-04-10T12:50:57;97412.59;;;13.84;55.84
10464;BME280;5279;42.048;24.638;2023-04-10T12:53:24;97409.19;;;14.14;56.25
10464;BME280;5279;42.048;24.638;2023-04-10T12:56:01;97403.41;;;14.03;53.40
10464;BME280;5279;42.048;24.638;2023-04-10T12:58:29;97403.72;;;14.08;54.12
10464;BME280;5279;42.048;24.638;2023-04-10T13:01:02;97399.16;;;14.24;49.87
10464;BME280;5279;42.048;24.638;2023-04-10T13:03:30;97396.84;;;14.13;47.68
10464;BME280;5279;42.048;24.638;2023-04-10T13:05:59;97388.00;;;14.37;47.23
10464;BME280;5279;42.048;24.638;2023-04-10T13:08:25;97377.91;;;14.86;46.71
10464;BME280;5279;42.048;24.638;2023-04-10T13:10:52;97374.53;;;15.29;46.66
10464;BME280;5279;42.048;24.638;2023-04-10T13:13:23;97380.75;;;15.53;45.96
10464;BME280;5279;42.048;24.638;2023-04-10T13:15:51;97362.63;;;15.77;45.76
10464;BME280;5279;42.048;24.638;2023-04-10T13:18:18;97370.47;;;15.79;44.85